Time;durP1;ratioP1;P1;durP2;ratioP2;P2;SDS_P1;SDS_P2;PMS_P1;PMS_P2;Temp;Humidity;BMP_temperature;BMP_pressure;BME280_temperature;BME280_humidity;BME280_pressure;Samples;Min_cycle;Max_cycle;Signal;HPM_P1;HPM_P2
2022/06/09 00:01:15;;;;;;;28.88;4.55;;;14.60;99.90;;;;;;5072496;28;20035;-74
2022/06/09 00:03:59;;;;;;;15.15;4.03;;;14.60;99.90;;;;;;5072442;28;20016;-75
2022/06/09 00:06:31;;;;;;;25.02;4.15;;;14.60;99.90;;;;;;5072626;28;20024;-75
2022/06/09 00:09:00;;;;;;;16.63;4.00;;;14.60;99.90;;;;;;5072054;28;20024;-75
2022/06/09 00:11:26;;;;;;;16.17;4.03;;;14.60;99.90;;;;;;5072272;28;20025;-75
2022/06/09 00:13:53;;;;;;;19.20;3.95;;;14.60;99.90;;;;;;5072189;28;20025;-75
2022/06/09 00:16:18;;;;;;;16.33;3.78;;;14.60;99.90;;;;;;5072240;28;20031;-76
2022/06/09 00:18:44;;;;;;;17.40;4.30;;;14.70;99.90;;;;;;5053495;28;20020;-75
2022/06/09 00:21:10;;;;;;;14.82;3.55;;;14.70;99.90;;;;;;5071991;28;20075;-75
2022/06/09 00:23:36;;;;;;;22.98;3.92;;;14.70;99.90;;;;;;5068632;28;20057;-75
2022/06/09 00:26:01;;;;;;;20.30;3.72;;;14.70;99.90;;;;;;5058135;28;20021;-75
2022/06/09 00:28:28;;;;;;;17.20;3.75;;;14.70;99.90;;;;;;5068081;28;20052;-76
2022/06/09 00:30:53;;;;;;;12.93;3.70;;;14.70;99.90;;;;;;5071272;28;20151;-75
2022/06/09 00:33:19;;;;;;;20.92;3.88;;;14.80;99.90;;;;;;5063560;28;20120;-75
2022/06/09 00:35:45;;;;;;;13.52;3.67;;;14.70;99.90;;;;;;5071629;28;20046;-75
2022/06/09 00:38:11;;;;;;;12.35;3.78;;;14.70;99.90;;;;;;5071398;28;20480;-75
2022/06/09 00:40:37;;;;;;;15.88;3.92;;;14.70;99.90;;;;;;5068944;28;20105;-75
2022/06/09 00:43:03;;;;;;;19.77;3.53;;;14.70;99.90;;;;;;5071572;28;20111;-74
2022/06/09 00:45:33;;;;;;;16.10;3.42;;;14.70;99.90;;;;;;5071832;28;20518;-75
2022/06/09 00:48:23;;;;;;;19.80;3.65;;;14.70;99.90;;;;;;5071318;28;20040;-75
2022/06/09 00:50:53;;;;;;;15.85;3.33;;;14.70;99.90;;;;;;5071388;28;20040;-75
2022/06/09 00:53:24;;;;;;;16.95;3.60;;;14.70;99.90;;;;;;5053366;28;20040;-75
2022/06/09 00:55:51;;;;;;;15.10;3.50;;;14.70;99.90;;;;;;5071187;28;20117;-75
2022/06/09 00:58:21;;;;;;;20.58;3.85;;;14.60;99.90;;;;;;5063005;28;20021;-75
2022/06/09 01:00:55;;;;;;;21.92;3.58;;;14.60;99.90;;;;;;5069892;28;20036;-75
2022/06/09 01:03:24;;;;;;;16.92;4.45;;;14.60;99.90;;;;;;5071810;28;20108;-75
2022/06/09 01:05:57;;;;;;;16.98;3.97;;;14.60;99.90;;;;;;5070941;28;20028;-74
2022/06/09 01:08:22;;;;;;;19.08;4.35;;;14.60;99.90;;;;;;5070696;28;20105;-75
2022/06/09 01:10:48;;;;;;;13.55;3.38;;;14.60;99.90;;;;;;5068552;28;20079;-75
2022/06/09 01:13:14;;;;;;;16.35;3.42;;;14.60;99.90;;;;;;5071319;28;20544;-75
2022/06/09 01:16:07;;;;;;;21.45;3.78;;;14.50;99.90;;;;;;5070907;28;20028;-75
2022/06/09 01:18:53;;;;;;;17.65;3.72;;;14.50;99.90;;;;;;5070528;28;20017;-75
2022/06/09 01:21:33;;;;;;;13.73;3.90;;;14.50;99.90;;;;;;5070619;28;20365;-75
2022/06/09 01:24:30;;;;;;;14.63;3.78;;;14.50;99.90;;;;;;5071001;28;20503;-75
2022/06/09 01:27:10;;;;;;;15.25;3.30;;;14.40;99.90;;;;;;5061081;28;20515;-74
2022/06/09 01:30:03;;;;;;;18.20;3.70;;;14.40;99.90;;;;;;5070057;28;20496;-75
2022/06/09 01:32:45;;;;;;;17.05;3.83;;;14.40;99.90;;;;;;5064671;28;20028;-75
2022/06/09 01:35:33;;;;;;;12.75;3.30;;;14.30;99.90;;;;;;5069985;28;20107;-75
2022/06/09 01:37:59;;;;;;;18.48;3.45;;;14.30;99.90;;;;;;5069203;28;20024;-75
2022/06/09 01:40:26;;;;;;;14.95;3.55;;;14.30;99.90;;;;;;5070117;28;20496;-75
2022/06/09 01:42:57;;;;;;;11.50;3.30;;;14.30;99.90;;;;;;5070824;28;20043;-75
2022/06/09 01:45:47;;;;;;;11.68;3.40;;;14.30;99.90;;;;;;5070289;28;20104;-75
2022/06/09 01:48:16;;;;;;;11.32;3.45;;;14.20;99.90;;;;;;5067624;28;20031;-75
2022/06/09 01:50:52;;;;;;;12.90;2.85;;;14.20;99.90;;;;;;5070133;28;20071;-75
2022/06/09 01:53:44;;;;;;;12.48;3.33;;;14.20;99.90;;;;;;5070174;28;20025;-75
2022/06/09 01:56:29;;;;;;;16.33;4.00;;;14.30;99.90;;;;;;5067898;28;20392;-74
2022/06/09 01:59:13;;;;;;;13.85;2.92;;;14.30;99.90;;;;;;5070229;28;20021;-75
2022/06/09 02:01:43;;;;;;;16.95;3.00;;;14.30;99.90;;;;;;5070015;28;20035;-75
2022/06/09 02:04:22;;;;;;;15.38;2.80;;;14.40;99.90;;;;;;5070212;28;20028;-75
2022/06/09 02:06:50;;;;;;;17.20;2.75;;;14.40;99.90;;;;;;5070045;28;20125;-75
2022/06/09 02:09:16;;;;;;;22.45;3.53;;;14.40;99.90;;;;;;5070203;28;20043;-75
2022/06/09 02:11:51;;;;;;;20.30;3.22;;;14.40;99.90;;;;;;5070245;28;20024;-76
2022/06/09 02:14:17;;;;;;;;;;;14.50;99.90;;;;;;5070367;28;20036;-76
2022/06/09 02:16:43;;;;;;;13.35;2.47;;;14.50;99.90;;;;;;5070048;28;20290;-75
2022/06/09 02:19:09;;;;;;;10.88;2.50;;;14.50;99.90;;;;;;5069433;28;20127;-75
2022/06/09 02:21:37;;;;;;;14.30;2.90;;;14.50;99.90;;;;;;5069845;28;20059;-74
2022/06/09 02:24:03;;;;;;;13.18;2.58;;;14.50;99.90;;;;;;5070305;28;20112;-75
2022/06/09 02:26:28;;;;;;;21.63;2.80;;;14.50;99.90;;;;;;5070277;28;20108;-75
2022/06/09 02:28:54;;;;;;;14.60;2.90;;;14.50;99.90;;;;;;5070188;28;20355;-75
2022/06/09 02:31:21;;;;;;;10.85;2.63;;;14.60;99.90;;;;;;5069476;28;20032;-75
2022/06/09 02:33:48;;;;;;;13.73;2.47;;;14.60;99.90;;;;;;5069785;28;20029;-75
2022/06/09 02:36:14;;;;;;;18.75;3.25;;;14.60;99.90;;;;;;5069741;28;20148;-75
2022/06/09 02:38:39;;;;;;;13.40;2.50;;;14.60;99.90;;;;;;5068876;28;20111;-75
2022/06/09 02:41:05;;;;;;;17.20;2.45;;;14.60;99.90;;;;;;5069455;28;20417;-75
2022/06/09 02:43:31;;;;;;;13.48;2.53;;;14.60;99.90;;;;;;5073677;28;20404;-75
2022/06/09 02:45:57;;;;;;;13.93;2.33;;;14.60;99.90;;;;;;5073486;28;20042;-74
2022/06/09 02:48:23;;;;;;;7.43;1.90;;;14.60;99.90;;;;;;5055749;28;20025;-75
2022/06/09 02:50:51;;;;;;;9.65;2.08;;;14.70;99.90;;;;;;5073666;28;20021;-75
2022/06/09 02:53:17;;;;;;;15.25;2.17;;;14.70;99.90;;;;;;5073218;28;20253;-75
2022/06/09 02:55:43;;;;;;;8.73;1.98;;;14.70;99.90;;;;;;5072758;28;20031;-74
2022/06/09 02:58:09;;;;;;;10.90;2.10;;;14.70;99.90;;;;;;5074206;28;20020;-75
2022/06/09 03:00:35;;;;;;;11.30;2.50;;;14.70;99.90;;;;;;5063025;28;20029;-75
2022/06/09 03:03:04;;;;;;;10.63;1.75;;;14.70;99.90;;;;;;5073185;28;20111;-75
2022/06/09 03:05:31;;;;;;;8.52;1.88;;;14.70;99.90;;;;;;5066459;28;20098;-75
2022/06/09 03:07:57;;;;;;;11.00;1.60;;;14.80;99.90;;;;;;5071683;28;20031;-75
2022/06/09 03:10:23;;;;;;;7.68;1.40;;;14.80;99.90;;;;;;5061703;28;20416;-75
2022/06/09 03:12:49;;;;;;;7.75;1.90;;;14.80;99.90;;;;;;5058429;28;20111;-75
2022/06/09 03:15:19;;;;;;;7.97;1.80;;;14.80;99.90;;;;;;5072889;28;20108;-74
2022/06/09 03:17:44;;;;;;;8.65;2.00;;;14.80;99.90;;;;;;5073184;28;20048;-75
2022/06/09 03:20:23;;;;;;;4.85;1.52;;;14.80;99.90;;;;;;5072778;28;20087;-75
2022/06/09 03:22:49;;;;;;;6.65;1.65;;;14.90;99.90;;;;;;5073047;28;20025;-75
2022/06/09 03:25:14;;;;;;;7.32;1.80;;;14.80;99.90;;;;;;5073294;28;20082;-75
2022/06/09 03:27:40;;;;;;;6.55;2.28;;;14.80;99.90;;;;;;5072634;28;20016;-74
2022/06/09 03:30:07;;;;;;;7.68;1.80;;;14.80;99.90;;;;;;5072510;28;20767;-75
2022/06/09 03:32:32;;;;;;;7.07;1.75;;;14.80;99.90;;;;;;5072532;28;20021;-75
2022/06/09 03:34:58;;;;;;;8.00;1.65;;;14.80;99.90;;;;;;5072923;28;20094;-75
2022/06/09 03:37:24;;;;;;;7.97;1.42;;;14.80;99.90;;;;;;5073294;28;20024;-75
2022/06/09 03:39:50;;;;;;;7.55;1.60;;;14.80;99.90;;;;;;5072958;28;20036;-75
2022/06/09 03:42:16;;;;;;;5.18;1.70;;;14.80;99.90;;;;;;5072511;28;20027;-75
2022/06/09 03:44:41;;;;;;;8.77;1.60;;;14.80;99.90;;;;;;5072442;28;20037;-75
2022/06/09 03:47:08;;;;;;;6.43;1.60;;;14.80;99.90;;;;;;5072272;28;20291;-75
2022/06/09 03:49:34;;;;;;;6.97;1.70;;;14.80;99.90;;;;;;5054642;28;20036;-74
2022/06/09 03:52:00;;;;;;;8.25;1.83;;;14.90;99.90;;;;;;5072465;28;20040;-75
2022/06/09 03:54:25;;;;;;;4.68;1.67;;;14.90;99.90;;;;;;5071931;28;20384;-75
2022/06/09 03:56:51;;;;;;;6.97;1.92;;;14.80;99.90;;;;;;5072619;28;20028;-75
2022/06/09 03:59:17;;;;;;;12.82;2.00;;;14.90;99.90;;;;;;5072764;28;20019;-75
2022/06/09 04:01:43;;;;;;;10.02;1.80;;;14.90;99.90;;;;;;5072432;28;20032;-74
2022/06/09 04:04:09;;;;;;;10.00;2.13;;;14.90;99.90;;;;;;5071740;28;20032;-75
2022/06/09 04:06:35;;;;;;;10.63;2.08;;;15.00;99.90;;;;;;5072132;28;20036;-74
2022/06/09 04:09:01;;;;;;;11.43;2.08;;;15.00;99.90;;;;;;5072672;28;20025;-75
2022/06/09 04:11:27;;;;;;;6.68;1.73;;;15.00;99.90;;;;;;5072248;28;20415;-75
2022/06/09 04:13:52;;;;;;;11.43;2.10;;;15.10;99.90;;;;;;5065766;28;20024;-75
2022/06/09 04:16:27;;;;;;;10.48;1.85;;;15.10;99.90;;;;;;5067819;28;20361;-76
2022/06/09 04:18:54;;;;;;;14.05;2.40;;;15.10;99.90;;;;;;5053540;28;20076;-75
2022/06/09 04:21:20;;;;;;;12.90;1.98;;;15.20;99.90;;;;;;5070902;28;20040;-74
2022/06/09 04:23:46;;;;;;;11.00;1.90;;;15.20;99.90;;;;;;5072484;28;20016;-74
2022/06/09 04:26:15;;;;;;;9.30;2.25;;;15.20;99.90;;;;;;5071066;28;20107;-74
2022/06/09 04:28:42;;;;;;;6.43;1.80;;;15.20;99.90;;;;;;5071791;28;20029;-75
2022/06/09 04:31:08;;;;;;;7.82;1.63;;;15.20;99.90;;;;;;5071875;28;20388;-75
2022/06/09 04:33:34;;;;;;;7.55;2.08;;;15.20;99.90;;;;;;5057556;28;20020;-74
2022/06/09 04:35:59;;;;;;;8.82;1.92;;;15.30;99.90;;;;;;5061632;28;20503;-74
2022/06/09 04:38:25;;;;;;;8.55;1.65;;;15.20;99.90;;;;;;5055088;28;20036;-75
2022/06/09 04:40:50;;;;;;;6.63;1.75;;;15.30;99.90;;;;;;5056628;28;20105;-75
2022/06/09 04:43:16;;;;;;;4.30;1.88;;;15.20;99.90;;;;;;5058699;28;20024;-75
2022/06/09 04:45:42;;;;;;;13.02;2.08;;;15.20;99.90;;;;;;5058996;28;20547;-75
2022/06/09 04:48:10;;;;;;;7.88;2.00;;;15.20;99.90;;;;;;5060106;28;20025;-75
2022/06/09 04:50:36;;;;;;;6.57;2.22;;;15.20;99.90;;;;;;5051867;28;20373;-75
2022/06/09 04:53:02;;;;;;;8.27;2.05;;;15.20;99.90;;;;;;5060518;28;20043;-75
2022/06/09 04:55:28;;;;;;;6.70;2.25;;;15.20;99.90;;;;;;5068537;28;20016;-75
2022/06/09 04:57:55;;;;;;;7.28;2.25;;;15.20;99.90;;;;;;5062064;28;20507;-76
2022/06/09 05:00:20;;;;;;;7.03;2.00;;;15.10;99.90;;;;;;5070904;28;20066;-75
2022/06/09 05:02:46;;;;;;;5.63;2.10;;;15.10;99.90;;;;;;5070302;28;20029;-76
2022/06/09 05:05:23;;;;;;;13.20;2.90;;;15.00;99.90;;;;;;5056075;28;20477;-75
2022/06/09 05:07:49;;;;;;;6.47;2.17;;;15.00;99.90;;;;;;5069349;28;20067;-75
2022/06/09 05:10:15;;;;;;;9.20;2.78;;;14.90;99.90;;;;;;5071965;28;20062;-74
2022/06/09 05:12:42;;;;;;;8.15;2.53;;;15.00;99.90;;;;;;5052530;28;20025;-75
2022/06/09 05:15:11;;;;;;;5.05;2.40;;;15.00;99.90;;;;;;5058523;28;20373;-76
2022/06/09 05:17:37;;;;;;;9.10;2.88;;;15.00;99.90;;;;;;5071254;28;20036;-75
2022/06/09 05:20:06;;;;;;;6.25;2.75;;;14.90;99.90;;;;;;5063387;28;20048;-75
2022/06/09 05:22:32;;;;;;;7.85;2.72;;;15.00;99.90;;;;;;5068812;28;20021;-75
2022/06/09 05:24:59;;;;;;;8.00;3.20;;;15.00;99.90;;;;;;5070942;28;20500;-75
2022/06/09 05:27:25;;;;;;;10.93;3.40;;;15.00;99.90;;;;;;5070076;28;20031;-75
2022/06/09 05:29:51;;;;;;;10.27;3.40;;;15.00;99.90;;;;;;5071039;28;20417;-75
2022/06/09 05:32:17;;;;;;;10.77;3.55;;;14.90;99.90;;;;;;5063271;28;20025;-75
2022/06/09 05:34:42;;;;;;;8.43;3.47;;;14.90;99.90;;;;;;5049640;28;20415;-75
2022/06/09 05:37:08;;;;;;;8.13;3.42;;;14.90;99.90;;;;;;5070087;28;20024;-76
2022/06/09 05:45:04;;;;;;;9.40;3.70;;;14.90;99.90;;;;;;5066107;28;20031;-78
2022/06/09 05:47:30;;;;;;;11.88;3.80;;;14.90;99.90;;;;;;5071152;28;20020;-78
2022/06/09 05:49:55;;;;;;;8.40;3.22;;;14.80;99.90;;;;;;5069250;28;20126;-78
2022/06/09 05:52:26;;;;;;;9.35;3.38;;;14.80;99.90;;;;;;5068750;28;20028;-78
2022/06/09 05:54:53;;;;;;;7.43;2.70;;;14.80;99.90;;;;;;5064497;28;20052;-78
2022/06/09 05:57:23;;;;;;;8.27;2.22;;;14.80;99.90;;;;;;5065299;28;20024;-78
2022/06/09 05:59:50;;;;;;;4.60;2.03;;;14.70;99.90;;;;;;5063072;28;20028;-78
2022/06/09 06:02:16;;;;;;;3.58;1.85;;;14.70;99.90;;;;;;5070210;28;20024;-78
2022/06/09 06:04:42;;;;;;;3.60;1.58;;;14.60;99.90;;;;;;5070266;28;20058;-78
2022/06/09 06:07:08;;;;;;;4.85;1.80;;;14.50;99.90;;;;;;5069993;28;20075;-79
2022/06/09 06:09:34;;;;;;;3.05;1.50;;;14.50;99.90;;;;;;5069964;28;20029;-78
2022/06/09 06:12:00;;;;;;;3.60;1.55;;;14.50;99.90;;;;;;5069400;28;20059;-78
2022/06/09 06:14:27;;;;;;;2.95;1.45;;;14.40;99.90;;;;;;5068863;28;20066;-78
2022/06/09 06:16:53;;;;;;;4.68;1.67;;;14.40;99.90;;;;;;5070070;28;20012;-78
2022/06/09 06:19:20;;;;;;;5.35;1.70;;;14.40;99.90;;;;;;5069540;28;20067;-78
2022/06/09 06:21:47;;;;;;;3.55;1.80;;;14.40;99.90;;;;;;5070086;28;20028;-79
2022/06/09 06:24:14;;;;;;;6.78;2.10;;;14.40;99.90;;;;;;5069958;28;20047;-78
2022/06/09 06:26:40;;;;;;;8.10;2.20;;;14.50;99.90;;;;;;5052286;28;20017;-78
2022/06/09 06:29:07;;;;;;;6.38;2.60;;;14.50;99.90;;;;;;5069460;28;20400;-78
2022/06/09 06:31:33;;;;;;;5.28;2.63;;;14.50;99.90;;;;;;5069006;28;20021;-78
2022/06/09 06:33:58;;;;;;;8.05;2.65;;;14.50;99.90;;;;;;5057678;28;20503;-78
2022/06/09 06:36:24;;;;;;;9.73;2.80;;;14.60;99.90;;;;;;5069216;28;20414;-78
2022/06/09 06:38:50;;;;;;;8.32;3.05;;;14.60;99.90;;;;;;5067604;28;20035;-78
2022/06/09 06:41:17;;;;;;;5.85;2.80;;;14.60;99.90;;;;;;5070134;28;20024;-78
2022/06/09 06:43:45;;;;;;;8.73;3.47;;;14.70;99.90;;;;;;5069815;28;20384;-75
2022/06/09 06:46:10;;;;;;;9.63;3.38;;;14.60;99.90;;;;;;5070527;28;20372;-78
2022/06/09 06:48:36;;;;;;;13.57;3.80;;;14.70;99.90;;;;;;5062858;28;20036;-78
2022/06/09 06:51:03;;;;;;;14.38;5.40;;;14.70;99.90;;;;;;5069164;28;20033;-77
2022/06/09 06:53:28;;;;;;;13.38;7.20;;;14.80;99.90;;;;;;5069736;28;20078;-78
2022/06/09 06:55:54;;;;;;;10.85;5.90;;;14.80;99.90;;;;;;5064615;28;20057;-78
2022/06/09 06:58:19;;;;;;;11.95;4.80;;;14.90;99.90;;;;;;5055928;28;20488;-77
2022/06/09 07:00:45;;;;;;;8.07;4.88;;;15.00;99.90;;;;;;5070212;28;20044;-77
2022/06/09 07:03:11;;;;;;;15.57;5.30;;;15.10;99.90;;;;;;5068603;28;20021;-77
2022/06/09 07:05:37;;;;;;;15.45;5.07;;;15.30;99.90;;;;;;5069969;28;20051;-78
2022/06/09 07:08:04;;;;;;;15.25;5.07;;;15.40;99.90;;;;;;5070324;28;20032;-78
2022/06/09 07:10:32;;;;;;;15.70;5.95;;;15.50;99.90;;;;;;5065461;28;20032;-78
2022/06/09 07:12:59;;;;;;;13.88;4.35;;;15.60;99.90;;;;;;5054682;28;20084;-78
2022/06/09 07:15:25;;;;;;;12.15;4.15;;;15.80;99.90;;;;;;5068946;28;20028;-78
2022/06/09 07:17:51;;;;;;;8.30;2.72;;;15.90;99.90;;;;;;5069418;28;20020;-78
2022/06/09 07:20:17;;;;;;;13.40;2.80;;;16.10;99.90;;;;;;5059363;28;20055;-78
2022/06/09 07:22:43;;;;;;;11.57;2.90;;;16.20;99.90;;;;;;5065765;28;20465;-78
2022/06/09 07:25:14;;;;;;;10.52;2.42;;;16.30;99.90;;;;;;5069878;28;20044;-78
2022/06/09 07:27:40;;;;;;;10.75;2.60;;;16.40;99.90;;;;;;5053029;28;20031;-78
2022/06/09 07:30:06;;;;;;;13.25;2.50;;;16.50;99.90;;;;;;5048895;28;20029;-77
2022/06/09 07:32:32;;;;;;;8.13;2.47;;;16.60;99.90;;;;;;5065727;28;20075;-78
2022/06/09 07:34:58;;;;;;;8.20;2.28;;;16.70;99.90;;;;;;5057006;28;20025;-78
2022/06/09 07:37:24;;;;;;;9.35;2.20;;;16.70;99.90;;;;;;5059006;28;20020;-79
2022/06/09 07:39:49;;;;;;;10.82;2.17;;;16.80;99.90;;;;;;5067320;28;20028;-78
2022/06/09 07:42:15;;;;;;;10.25;2.15;;;16.80;99.90;;;;;;5061783;28;20021;-78
2022/06/09 07:44:41;;;;;;;10.00;1.83;;;16.90;99.90;;;;;;5071873;28;20021;-78
2022/06/09 07:47:06;;;;;;;9.38;2.13;;;16.90;99.90;;;;;;5069790;28;20509;-78
2022/06/09 07:49:33;;;;;;;10.32;2.17;;;17.00;99.90;;;;;;5065278;28;20063;-78
2022/06/09 07:51:59;;;;;;;11.35;2.13;;;17.00;99.90;;;;;;5064320;28;20074;-77
2022/06/09 07:54:24;;;;;;;13.07;2.45;;;17.10;99.90;;;;;;5072632;28;20025;-78
2022/06/09 07:56:50;;;;;;;11.23;2.00;;;17.20;99.90;;;;;;5072312;28;20419;-77
2022/06/09 07:59:16;;;;;;;10.05;2.15;;;17.30;99.90;;;;;;5067670;28;20103;-78
2022/06/09 08:01:41;;;;;;;8.50;1.90;;;17.30;99.90;;;;;;5067860;28;20048;-78
2022/06/09 08:04:07;;;;;;;8.80;2.15;;;17.30;99.90;;;;;;5069353;28;20114;-78
2022/06/09 08:06:33;;;;;;;13.57;2.10;;;17.20;99.90;;;;;;5071214;28;20392;-78
2022/06/09 08:09:00;;;;;;;8.70;2.10;;;17.20;99.90;;;;;;5072443;28;20017;-77
2022/06/09 08:11:29;;;;;;;6.72;2.05;;;17.30;99.90;;;;;;5072203;28;20031;-78
2022/06/09 08:13:56;;;;;;;14.85;2.28;;;17.30;99.90;;;;;;5072441;28;20040;-78
2022/06/09 08:16:21;;;;;;;11.63;2.10;;;17.40;99.90;;;;;;5071422;28;20024;-78
2022/06/09 08:18:47;;;;;;;9.13;2.17;;;17.40;99.90;;;;;;5058681;28;20029;-79
2022/06/09 08:21:14;;;;;;;11.98;1.95;;;17.40;99.90;;;;;;5056742;28;20063;-77
2022/06/09 08:23:40;;;;;;;11.30;2.22;;;17.50;99.90;;;;;;5072378;28;20013;-77
2022/06/09 08:26:05;;;;;;;15.32;1.90;;;17.50;99.90;;;;;;5072262;28;20032;-77
2022/06/09 08:28:31;;;;;;;9.85;1.92;;;17.50;99.90;;;;;;5054052;28;20508;-78
2022/06/09 08:30:58;;;;;;;13.68;2.40;;;17.60;99.90;;;;;;5059609;28;20033;-78
2022/06/09 08:33:25;;;;;;;8.98;2.05;;;17.70;99.90;;;;;;5062981;28;20629;-77
2022/06/09 08:35:53;;;;;;;7.47;1.90;;;17.70;99.90;;;;;;5059550;28;20028;-77
2022/06/09 08:38:19;;;;;;;8.57;1.75;;;17.80;99.90;;;;;;5066388;28;20044;-77
2022/06/09 08:40:57;;;;;;;5.45;1.70;;;17.90;99.90;;;;;;5055035;28;20024;-77
2022/06/09 08:43:30;;;;;;;10.57;2.03;;;18.00;99.90;;;;;;5050575;28;20104;-77
2022/06/09 08:45:57;;;;;;;12.48;1.88;;;18.20;99.90;;;;;;5058300;28;20036;-78
2022/06/09 08:48:25;;;;;;;9.27;1.80;;;18.30;99.90;;;;;;5060491;28;20082;-77
2022/06/09 08:51:21;;;;;;;13.30;1.95;;;18.50;99.90;;;;;;5070478;28;20017;-77
2022/06/09 08:53:52;;;;;;;8.95;1.77;;;18.50;99.90;;;;;;5053565;28;20028;-77
2022/06/09 08:56:26;;;;;;;9.32;1.90;;;18.50;99.90;;;;;;5059724;28;20032;-77
2022/06/09 08:58:59;;;;;;;9.02;1.83;;;18.50;99.90;;;;;;5055602;28;20136;-77
2022/06/09 09:01:34;;;;;;;9.82;2.17;;;18.60;99.90;;;;;;5039575;28;20112;-77
2022/06/09 09:04:02;;;;;;;5.65;1.73;;;18.80;99.90;;;;;;5054248;28;20493;-77
2022/06/09 09:06:49;;;;;;;11.50;2.00;;;18.90;99.90;;;;;;5050750;28;20485;-76
2022/06/09 09:09:24;;;;;;;9.38;2.00;;;19.10;99.90;;;;;;5066995;28;20044;-77
2022/06/09 09:12:28;;;;;;;9.80;1.90;;;19.10;99.90;;;;;;5053260;28;20029;-78
2022/06/09 09:15:14;;;;;;;6.28;1.75;;;19.10;99.90;;;;;;5058263;28;20031;-77
2022/06/09 09:18:19;;;;;;;6.72;1.75;;;19.10;99.90;;;;;;5069204;28;20457;-77
2022/06/09 09:21:20;;;;;;;10.55;2.17;;;19.20;99.90;;;;;;5067899;28;20048;-76
2022/06/09 09:24:17;;;;;;;12.05;1.90;;;19.30;99.90;;;;;;5058676;28;20055;-76
2022/06/09 09:26:50;;;;;;;9.85;1.75;;;19.40;99.90;;;;;;5065294;28;20384;-76
2022/06/09 09:29:29;;;;;;;11.25;2.10;;;19.60;99.90;;;;;;5055789;28;20063;-77
2022/06/09 09:31:56;;;;;;;8.95;2.10;;;19.70;99.90;;;;;;5063620;28;20032;-75
2022/06/09 09:34:34;;;;;;;10.52;2.25;;;19.90;99.90;;;;;;5061934;28;20024;-76
2022/06/09 09:37:17;;;;;;;9.20;1.95;;;20.10;99.90;;;;;;5056595;28;20021;-75
2022/06/09 09:39:50;;;;;;;9.43;1.88;;;20.10;99.90;;;;;;5059452;28;20021;-75
2022/06/09 09:42:22;;;;;;;7.60;2.10;;;20.10;99.90;;;;;;5056471;28;20024;-75
2022/06/09 09:45:19;;;;;;;8.25;2.33;;;20.10;99.90;;;;;;5069923;28;20017;-75
2022/06/09 09:47:45;;;;;;;10.73;1.77;;;20.20;99.90;;;;;;5060607;28;20109;-77
2022/06/09 09:50:51;;;;;;;5.90;2.00;;;20.20;99.90;;;;;;5051257;28;20545;-76
2022/06/09 09:53:19;;;;;;;9.82;2.10;;;20.30;99.90;;;;;;5031792;28;20048;-76
2022/06/09 09:56:02;;;;;;;8.88;2.05;;;20.40;99.90;;;;;;5068625;28;20492;-76
2022/06/09 09:58:40;;;;;;;9.05;2.15;;;20.40;99.90;;;;;;5052027;28;20033;-76
2022/06/09 10:01:32;;;;;;;9.43;1.98;;;20.50;99.90;;;;;;5068377;28;20024;-76
2022/06/09 10:10:11;;;;;;;9.70;2.00;;;20.90;99.90;;;;;;5060333;28;20047;-75
2022/06/09 10:12:37;;;;;;;9.05;1.98;;;21.00;99.90;;;;;;5069787;28;20028;-76
2022/06/09 10:15:02;;;;;;;8.55;2.13;;;20.90;99.90;;;;;;5070094;28;20024;-76
2022/06/09 10:17:32;;;;;;;13.50;2.22;;;20.80;99.90;;;;;;5069943;28;20464;-76
2022/06/09 10:20:15;;;;;;;9.35;2.17;;;20.70;99.90;;;;;;5069414;28;20059;-76
2022/06/09 10:22:53;;;;;;;10.95;2.05;;;20.80;99.90;;;;;;5065712;28;20050;-76
2022/06/09 10:25:21;;;;;;;10.05;2.38;;;20.80;99.90;;;;;;5070010;28;20032;-75
2022/06/09 10:27:55;;;;;;;9.45;2.22;;;20.90;99.90;;;;;;5069926;28;20095;-76
2022/06/09 10:30:29;;;;;;;9.57;2.20;;;20.80;99.90;;;;;;5070208;28;20024;-75
2022/06/09 10:33:04;;;;;;;11.18;2.20;;;20.90;99.90;;;;;;5070119;28;20051;-76
2022/06/09 10:35:34;;;;;;;;;;;20.90;99.90;;;;;;5071193;28;20070;-77
2022/06/09 10:38:06;;;;;;;6.85;1.92;;;20.90;99.90;;;;;;5059526;28;19905;-77
2022/06/09 10:40:44;;;;;;;15.32;2.50;;;21.10;99.90;;;;;;5069950;28;20075;-78
2022/06/09 10:43:32;;;;;;;13.18;2.67;;;21.20;99.90;;;;;;5048407;28;20020;-79
2022/06/09 10:46:26;;;;;;;9.82;2.50;;;21.30;99.90;;;;;;5066040;28;20033;-78
2022/06/09 10:55:33;;;;;;;12.13;2.28;;;21.30;99.90;;;;;;5072781;28;20038;-76
2022/06/09 10:58:02;;;;;;;15.23;2.60;;;21.30;99.90;;;;;;5058382;28;20088;-76
2022/06/09 11:00:35;;;;;;;9.77;2.40;;;21.20;99.90;;;;;;5073777;28;20044;-76
2022/06/09 11:03:10;;;;;;;8.50;2.38;;;21.30;99.90;;;;;;5069849;28;20370;-76
2022/06/09 11:05:56;;;;;;;14.57;2.58;;;21.40;99.90;;;;;;5076933;28;20123;-76
2022/06/09 11:08:45;;;;;;;12.52;2.40;;;21.40;99.90;;;;;;5077419;28;20028;-76
2022/06/09 11:11:26;;;;;;;12.27;2.35;;;21.40;99.90;;;;;;5074053;28;20135;-76
2022/06/09 11:13:57;;;;;;;16.55;2.60;;;21.40;99.90;;;;;;5057323;28;20376;-75
2022/06/09 11:16:46;;;;;;;10.52;2.38;;;21.40;99.90;;;;;;5078483;28;20441;-76
2022/06/09 11:19:45;;;;;;;14.75;2.90;;;21.40;99.90;;;;;;5077606;28;20496;-75
2022/06/09 11:22:38;;;;;;;11.02;2.45;;;21.60;99.90;;;;;;5069464;28;20459;-76
2022/06/09 11:25:26;;;;;;;11.00;2.92;;;21.60;99.90;;;;;;5067379;28;20078;-75
2022/06/09 11:28:22;;;;;;;14.93;2.70;;;21.70;99.90;;;;;;5074989;28;20032;-76
2022/06/09 11:31:13;;;;;;;12.45;2.38;;;21.90;99.90;;;;;;5065757;28;20028;-76
2022/06/09 11:33:57;;;;;;;12.48;2.58;;;22.00;99.90;;;;;;5061136;28;20021;-75
2022/06/09 11:36:33;;;;;;;12.95;2.70;;;22.10;99.90;;;;;;5077682;28;20111;-75
2022/06/09 11:39:28;;;;;;;13.25;2.65;;;22.20;99.90;;;;;;5071496;28;20112;-76
2022/06/09 11:42:01;;;;;;;16.42;3.05;;;22.20;99.90;;;;;;5073811;28;20023;-77
2022/06/09 11:44:38;;;;;;;15.20;2.70;;;22.20;99.90;;;;;;5077745;28;20025;-77
2022/06/09 11:47:16;;;;;;;12.75;2.47;;;22.20;99.90;;;;;;5071295;28;20532;-75
2022/06/09 11:49:45;;;;;;;11.02;2.40;;;22.30;99.90;;;;;;5067787;28;20460;-77
2022/06/09 11:52:22;;;;;;;11.00;2.55;;;22.20;99.80;;;;;;5058741;28;20440;-78
2022/06/09 11:54:54;;;;;;;9.15;2.53;;;22.10;99.90;;;;;;5076657;28;20442;-76
2022/06/09 11:57:35;;;;;;;11.68;2.10;;;22.10;99.30;;;;;;5076648;28;20017;-76
2022/06/09 12:00:18;;;;;;;12.88;2.60;;;22.00;99.10;;;;;;5071380;28;20028;-76
2022/06/09 12:03:14;;;;;;;11.45;2.33;;;22.00;98.50;;;;;;5072701;28;20021;-75
2022/06/09 12:05:55;;;;;;;10.07;2.30;;;22.00;98.90;;;;;;5077181;28;20088;-77
2022/06/09 12:08:46;;;;;;;14.68;2.70;;;22.10;98.80;;;;;;5070555;28;20033;-76
2022/06/09 12:11:18;;;;;;;13.23;2.53;;;22.00;97.90;;;;;;5068073;28;20057;-76
2022/06/09 12:13:44;;;;;;;11.68;2.30;;;21.90;97.50;;;;;;5067623;28;20016;-76
2022/06/09 12:16:36;;;;;;;10.02;2.53;;;21.80;97.30;;;;;;5073665;28;20484;-76
2022/06/09 12:19:14;;;;;;;16.77;2.95;;;21.80;97.30;;;;;;5067536;28;20032;-77
2022/06/09 12:21:44;;;;;;;10.48;2.22;;;21.90;97.20;;;;;;5070783;28;20025;-76
2022/06/09 12:24:22;;;;;;;15.90;2.25;;;22.00;97.10;;;;;;5064736;28;20029;-79
2022/06/09 12:27:08;;;;;;;10.48;2.30;;;22.10;96.10;;;;;;5076105;28;20107;-76
2022/06/09 12:29:34;;;;;;;11.95;1.80;;;22.20;96.20;;;;;;5076153;28;20025;-78
2022/06/09 12:32:20;;;;;;;8.90;2.20;;;22.20;96.60;;;;;;5071549;28;20039;-77
2022/06/09 12:34:53;;;;;;;9.13;1.90;;;22.30;96.10;;;;;;5051998;28;20024;-77
2022/06/09 12:37:28;;;;;;;13.48;2.08;;;22.30;96.00;;;;;;5063569;28;20024;-78
2022/06/09 12:39:58;;;;;;;13.35;2.35;;;22.40;95.30;;;;;;5076476;28;20488;-77
2022/06/09 12:42:39;;;;;;;9.48;1.83;;;22.50;94.40;;;;;;5056503;28;20563;-77
2022/06/09 12:45:21;;;;;;;10.98;2.08;;;22.40;93.60;;;;;;5070336;28;20021;-78
2022/06/09 12:47:56;;;;;;;12.20;2.05;;;22.40;92.90;;;;;;5076216;28;20568;-77
2022/06/09 12:50:48;;;;;;;10.38;2.53;;;22.50;92.30;;;;;;5074200;28;20170;-76
2022/06/09 12:53:39;;;;;;;11.27;2.15;;;22.60;92.60;;;;;;5068168;28;20056;-76
2022/06/09 12:56:27;;;;;;;10.80;2.10;;;22.70;91.40;;;;;;5072011;28;20565;-75
2022/06/09 12:58:54;;;;;;;10.75;2.40;;;22.80;90.70;;;;;;5072686;28;20020;-76
2022/06/09 13:01:27;;;;;;;8.95;2.28;;;22.70;90.10;;;;;;5077815;28;20017;-75
2022/06/09 13:04:02;;;;;;;7.78;2.22;;;22.70;88.40;;;;;;5073159;28;20060;-76
2022/06/09 13:06:37;;;;;;;9.00;2.03;;;22.60;85.80;;;;;;5072413;28;20063;-77
2022/06/09 13:09:27;;;;;;;13.68;2.13;;;22.50;84.60;;;;;;5047129;28;20033;-75
2022/06/09 13:14:43;;;;;;;12.75;2.10;;;22.60;84.50;;;;;;5064297;28;20027;-77
2022/06/09 13:17:15;;;;;;;8.48;1.77;;;22.60;84.00;;;;;;5053117;28;20025;-76
2022/06/09 13:19:41;;;;;;;10.75;2.22;;;22.60;82.60;;;;;;5071008;28;20036;-76
2022/06/09 13:22:15;;;;;;;11.10;1.98;;;22.60;81.40;;;;;;5071186;28;20035;-76
2022/06/09 13:24:42;;;;;;;13.27;2.15;;;22.60;80.00;;;;;;5070974;28;20029;-76